Time;durP1;ratioP1;P1;durP2;ratioP2;P2;SDS_P1;SDS_P2;PMS_P1;PMS_P2;Temp;Humidity;BMP_temperature;BMP_pressure;BME280_temperature;BME280_humidity;BME280_pressure;Samples;Min_cycle;Max_cycle;Signal;HPM_P1;HPM_P2
2021/03/15 00:00:11;;;;;;;8.10;4.50;;;;;;;6.09;100.00;100542.84;4971239;28;20042;-58
2021/03/15 00:02:38;;;;;;;10.82;3.80;;;;;;;6.14;100.00;100530.00;4963586;28;20055;-59
2021/03/15 00:05:06;;;;;;;9.52;4.53;;;;;;;6.19;100.00;100516.31;4970675;28;20494;-59
2021/03/15 00:07:34;;;;;;;8.70;3.25;;;;;;;6.19;100.00;100513.66;4971400;28;20061;-59
2021/03/15 00:10:01;;;;;;;11.73;6.05;;;;;;;6.23;100.00;100514.22;4973865;28;20043;-59
2021/03/15 00:12:28;;;;;;;8.40;4.45;;;;;;;6.14;100.00;100514.09;4965145;28;20069;-59
2021/03/15 00:14:55;;;;;;;11.30;4.20;;;;;;;6.16;100.00;100514.78;4973360;28;20442;-59
2021/03/15 00:17:23;;;;;;;10.10;3.85;;;;;;;6.14;100.00;100530.00;4970722;28;20134;-59
2021/03/15 00:19:51;;;;;;;11.38;4.45;;;;;;;6.16;100.00;100509.47;4967471;28;20045;-58
2021/03/15 00:22:17;;;;;;;15.48;4.50;;;;;;;6.16;100.00;100525.38;4966605;28;20043;-60
2021/03/15 00:24:44;;;;;;;9.43;3.67;;;;;;;6.20;100.00;100510.88;4969417;28;20435;-59
2021/03/15 00:27:11;;;;;;;10.45;4.43;;;;;;;6.17;100.00;100513.81;4970300;28;20126;-59
2021/03/15 00:29:38;;;;;;;9.93;3.83;;;;;;;6.13;100.00;100501.81;4967701;28;20418;-59
2021/03/15 00:32:06;;;;;;;11.52;3.85;;;;;;;6.20;100.00;100507.41;4967495;28;20035;-59
2021/03/15 00:34:34;;;;;;;11.65;4.00;;;;;;;6.15;100.00;100502.53;4967957;28;20046;-59
2021/03/15 00:37:01;;;;;;;8.35;3.83;;;;;;;6.08;100.00;100498.78;4967174;28;20100;-59
2021/03/15 00:39:28;;;;;;;7.13;4.10;;;;;;;6.11;100.00;100493.19;4970418;28;20047;-60
2021/03/15 00:41:56;;;;;;;11.20;4.47;;;;;;;6.04;100.00;100497.38;4965049;28;20053;-60
2021/03/15 00:44:23;;;;;;;12.68;4.97;;;;;;;6.13;100.00;100501.00;4969339;28;20043;-59
2021/03/15 00:46:50;;;;;;;13.55;4.72;;;;;;;6.14;100.00;100489.41;4970739;28;20039;-59
2021/03/15 00:49:17;;;;;;;9.65;3.97;;;;;;;6.19;100.00;100488.00;4969809;28;20058;-58
2021/03/15 00:51:45;;;;;;;9.95;4.50;;;;;;;6.09;100.00;100484.50;4965948;28;20050;-58
2021/03/15 00:54:12;;;;;;;15.10;5.85;;;;;;;6.06;100.00;100484.81;4968434;28;20142;-58
2021/03/15 00:56:39;;;;;;;12.07;5.18;;;;;;;6.09;100.00;100484.50;4966493;28;20050;-57
2021/03/15 00:59:06;;;;;;;13.07;5.65;;;;;;;6.03;100.00;100479.78;4970696;28;20422;-58
2021/03/15 01:01:36;;;;;;;11.18;4.82;;;;;;;6.05;100.00;100482.28;4968013;28;20069;-57
2021/03/15 01:04:04;;;;;;;10.20;4.95;;;;;;;6.09;100.00;100484.50;4967316;28;20061;-59
2021/03/15 01:06:40;;;;;;;12.25;4.85;;;;;;;6.26;100.00;100484.78;4968382;28;20074;-58
2021/03/15 01:09:09;;;;;;;10.38;5.68;;;;;;;6.32;100.00;100484.19;4967304;28;20050;-59
2021/03/15 01:11:37;;;;;;;11.80;5.88;;;;;;;6.31;100.00;100477.22;4962408;28;20047;-58
2021/03/15 01:14:05;;;;;;;14.75;6.38;;;;;;;6.43;100.00;100496.47;4970136;28;20043;-58
2021/03/15 01:16:31;;;;;;;21.98;7.00;;;;;;;6.50;100.00;100473.69;4966192;28;20129;-57
2021/03/15 01:18:59;;;;;;;14.60;5.05;;;;;;;6.43;100.00;100475.25;4968867;28;20313;-58
2021/03/15 01:21:26;;;;;;;18.17;5.72;;;;;;;6.42;100.00;100479.72;4967074;28;20186;-58
2021/03/15 01:23:54;;;;;;;14.35;5.68;;;;;;;6.45;100.00;100479.41;4969749;28;20042;-58
2021/03/15 01:26:21;;;;;;;12.75;5.90;;;;;;;6.35;100.00;100468.84;4968338;28;20050;-58
2021/03/15 01:28:48;;;;;;;11.90;6.30;;;;;;;6.32;100.00;100468.28;4968019;28;20388;-58
2021/03/15 01:31:15;;;;;;;10.23;5.47;;;;;;;6.34;100.00;100472.47;4966752;28;20046;-58
2021/03/15 01:33:43;;;;;;;15.73;7.72;;;;;;;6.33;100.00;100468.13;4967139;28;20632;-58
2021/03/15 01:36:09;;;;;;;11.35;6.00;;;;;;;6.36;100.00;100474.97;4970160;28;20043;-58
2021/03/15 01:38:36;;;;;;;15.68;7.30;;;;;;;6.34;100.00;100469.81;4968742;28;20057;-59
2021/03/15 01:41:04;;;;;;;14.07;7.15;;;;;;;6.32;100.00;100471.78;4964642;28;20054;-59
2021/03/15 01:43:31;;;;;;;12.63;6.65;;;;;;;6.30;100.00;100471.06;4968068;28;20038;-59
2021/03/15 01:45:58;;;;;;;15.23;7.03;;;;;;;6.42;100.00;100471.75;4969966;28;20464;-56
2021/03/15 01:48:25;;;;;;;11.00;6.25;;;;;;;6.35;100.00;100466.19;4967380;28;20057;-57
2021/03/15 01:50:52;;;;;;;12.52;6.20;;;;;;;6.35;100.00;100465.31;4966790;28;20168;-58
2021/03/15 01:53:20;;;;;;;14.82;7.75;;;;;;;6.27;100.00;100470.53;4968074;28;20459;-58
2021/03/15 01:55:48;;;;;;;13.77;7.18;;;;;;;6.29;100.00;100471.22;4967502;28;20057;-58
2021/03/15 01:58:15;;;;;;;14.82;7.30;;;;;;;6.36;100.00;100473.16;4968703;28;20038;-57
2021/03/15 02:00:44;;;;;;;19.83;8.82;;;;;;;6.32;100.00;100470.94;4964859;28;20283;-58
2021/03/15 02:03:12;;;;;;;21.60;9.95;;;;;;;6.36;100.00;100464.34;4968565;28;20057;-58
2021/03/15 02:05:41;;;;;;;23.85;9.05;;;;;;;6.31;100.00;100456.84;4965722;28;20158;-59
2021/03/15 02:08:09;;;;;;;17.45;9.48;;;;;;;6.40;100.00;100459.63;4967096;28;20122;-57
2021/03/15 02:10:37;;;;;;;18.65;10.45;;;;;;;6.37;100.00;100448.28;4964232;28;20046;-59
2021/03/15 02:13:33;;;;;;;16.65;8.88;;;;;;;6.40;100.00;100455.13;4967685;28;20038;-58
2021/03/15 02:16:04;;;;;;;18.35;9.05;;;;;;;6.36;100.00;100465.22;4969723;28;20047;-59
2021/03/15 02:18:50;;;;;;;19.88;9.20;;;;;;;6.44;100.00;100464.47;4968485;28;20043;-59
2021/03/15 02:21:44;;;;;;;20.85;10.82;;;;;;;6.40;100.00;100471.06;4959702;28;20363;-58
2021/03/15 02:24:16;;;;;;;27.90;10.82;;;;;;;6.40;100.00;100481.66;4968644;28;20042;-59
2021/03/15 02:27:03;;;;;;;16.77;9.27;;;;;;;6.33;100.00;100467.31;4964195;28;20212;-58
2021/03/15 02:29:44;;;;;;;15.82;7.85;;;;;;;6.41;100.00;100461.25;4969064;28;20062;-57
2021/03/15 02:32:23;;;;;;;16.95;9.70;;;;;;;6.34;100.00;100466.34;4966829;28;20061;-58
2021/03/15 02:35:03;;;;;;;24.27;10.57;;;;;;;6.33;100.00;100483.22;4967822;28;20086;-58
2021/03/15 02:37:51;;;;;;;26.73;12.77;;;;;;;6.35;100.00;100481.25;4966861;28;20070;-57
2021/03/15 02:40:23;;;;;;;27.05;14.73;;;;;;;6.39;100.00;100466.72;4966612;28;20046;-55
2021/03/15 02:42:51;;;;;;;24.80;14.02;;;;;;;6.38;100.00;100478.34;4964826;28;20034;-58
2021/03/15 02:45:18;;;;;;;21.88;14.45;;;;;;;6.33;100.00;100478.75;4966451;28;20389;-57
2021/03/15 02:47:47;;;;;;;20.92;11.25;;;;;;;6.32;100.00;100484.19;4966944;28;20617;-56
2021/03/15 02:50:15;;;;;;;22.10;13.32;;;;;;;6.32;100.00;100474.44;4967392;28;20055;-58
2021/03/15 02:52:45;;;;;;;16.05;8.93;;;;;;;6.43;100.00;100476.06;4963436;28;20351;-58
2021/03/15 02:55:14;;;;;;;21.23;8.18;;;;;;;6.52;100.00;100482.31;4967385;28;20055;-56
2021/03/15 02:57:42;;;;;;;18.35;10.18;;;;;;;6.54;100.00;100473.22;4966120;28;20435;-58
2021/03/15 03:00:11;;;;;;;22.35;9.82;;;;;;;6.60;100.00;100465.69;4968486;28;20039;-56
2021/03/15 03:02:41;;;;;;;15.32;7.50;;;;;;;6.65;100.00;100474.03;4961502;28;20057;-57
2021/03/15 03:05:10;;;;;;;15.15;9.10;;;;;;;6.63;100.00;100457.44;4968076;28;20320;-57
2021/03/15 03:07:39;;;;;;;18.67;6.65;;;;;;;6.57;100.00;100482.72;4965600;28;20462;-58
2021/03/15 03:10:08;;;;;;;17.98;7.05;;;;;;;6.44;100.00;100482.22;4964548;28;20053;-57
2021/03/15 03:12:36;;;;;;;21.10;7.65;;;;;;;6.50;100.00;100482.47;4962998;28;20039;-58
2021/03/15 03:15:07;;;;;;;16.27;6.72;;;;;;;6.54;100.00;100483.84;4965529;28;20051;-54
2021/03/15 03:17:38;;;;;;;18.23;8.27;;;;;;;6.61;100.00;100480.63;4968017;28;20057;-58
2021/03/15 03:20:07;;;;;;;17.42;7.97;;;;;;;6.54;100.00;100486.50;4964404;28;21039;-58
2021/03/15 03:22:35;;;;;;;22.58;7.15;;;;;;;6.50;100.00;100497.56;4965153;28;20331;-58
2021/03/15 03:25:03;;;;;;;16.48;7.50;;;;;;;6.57;100.00;100495.16;4964213;28;20058;-58
2021/03/15 03:27:31;;;;;;;16.05;7.22;;;;;;;6.63;100.00;100492.75;4966552;28;20439;-58
2021/03/15 03:29:59;;;;;;;15.57;6.00;;;;;;;6.62;100.00;100503.50;4965772;28;20078;-58
2021/03/15 03:32:26;;;;;;;13.15;6.60;;;;;;;6.54;100.00;100505.06;4964483;28;20034;-58
2021/03/15 03:34:54;;;;;;;17.60;7.55;;;;;;;6.52;100.00;100517.66;4967382;28;20051;-59
2021/03/15 03:37:21;;;;;;;18.13;7.65;;;;;;;6.42;100.00;100519.50;4966008;28;20043;-58
2021/03/15 03:39:48;;;;;;;21.25;8.52;;;;;;;6.42;100.00;100529.25;4967435;28;20050;-57
2021/03/15 03:42:15;;;;;;;18.88;8.60;;;;;;;6.36;100.00;100518.25;4963079;28;20467;-58
2021/03/15 03:44:42;;;;;;;16.88;8.18;;;;;;;6.34;100.00;100522.84;4967424;28;20047;-59
2021/03/15 03:47:09;;;;;;;15.18;7.25;;;;;;;6.30;100.00;100525.94;4967607;28;20043;-58
2021/03/15 03:49:37;;;;;;;11.85;6.20;;;;;;;6.34;100.00;100535.28;4966909;28;20077;-58
2021/03/15 03:52:07;;;;;;;17.77;8.15;;;;;;;6.35;100.00;100535.16;4963954;28;20047;-58
2021/03/15 03:54:37;;;;;;;15.98;7.03;;;;;;;6.22;100.00;100541.72;4967207;28;20050;-58
2021/03/15 03:57:06;;;;;;;13.82;7.95;;;;;;;6.30;100.00;100533.91;4963038;28;20347;-57
2021/03/15 03:59:36;;;;;;;14.85;7.50;;;;;;;6.25;100.00;100538.78;4966497;28;20046;-57
2021/03/15 04:02:04;;;;;;;13.85;7.07;;;;;;;6.23;100.00;100551.34;4964841;28;20065;-57
2021/03/15 04:04:37;;;;;;;14.57;7.25;;;;;;;6.18;100.00;100549.09;4964878;28;20050;-56
2021/03/15 04:07:06;;;;;;;18.05;9.50;;;;;;;6.11;100.00;100561.25;4966311;28;20417;-58
2021/03/15 04:09:35;;;;;;;15.75;8.07;;;;;;;6.12;100.00;100554.97;4966398;28;20105;-56
2021/03/15 04:12:05;;;;;;;14.93;6.80;;;;;;;6.11;100.00;100553.31;4962175;28;20050;-58
2021/03/15 04:14:36;;;;;;;16.15;8.35;;;;;;;6.00;100.00;100564.91;4965597;28;20359;-58
2021/03/15 04:17:04;;;;;;;17.20;8.10;;;;;;;6.00;100.00;100562.25;4967773;28;20047;-58
2021/03/15 04:19:36;;;;;;;15.05;7.38;;;;;;;6.02;100.00;100570.88;5082445;23;20113;-52
2021/03/15 04:22:07;;;;;;;14.82;8.18;;;;;;;5.86;100.00;100564.28;4962297;28;20045;-51
2021/03/15 04:24:36;;;;;;;14.75;7.95;;;;;;;5.85;100.00;100559.13;4963171;28;20043;-49
2021/03/15 04:27:03;;;;;;;17.77;9.02;;;;;;;5.68;100.00;100569.47;4966362;28;20082;-52
2021/03/15 04:29:32;;;;;;;17.80;9.05;;;;;;;5.78;100.00;100579.22;4966566;28;20069;-52
2021/03/15 04:32:01;;;;;;;25.45;9.70;;;;;;;5.78;100.00;100580.03;4943991;28;20042;-52
2021/03/15 04:34:29;;;;;;;21.63;8.73;;;;;;;5.81;100.00;100585.09;4964510;28;20043;-52
2021/03/15 04:36:56;;;;;;;19.77;9.10;;;;;;;5.90;100.00;100585.22;4962166;28;20074;-53
2021/03/15 04:39:25;;;;;;;22.05;10.27;;;;;;;5.91;100.00;100594.84;4966857;28;20135;-53
2021/03/15 04:41:52;;;;;;;21.70;9.35;;;;;;;5.90;100.00;100596.66;4966187;28;20039;-53
2021/03/15 04:44:19;;;;;;;20.45;9.40;;;;;;;5.79;100.00;100602.09;4967811;28;20042;-53
2021/03/15 04:46:46;;;;;;;19.90;9.45;;;;;;;5.91;100.00;100603.66;4966876;28;20043;-51
2021/03/15 04:49:16;;;;;;;20.15;9.70;;;;;;;5.89;100.00;100600.28;4967231;28;20169;-53
2021/03/15 04:51:43;;;;;;;26.42;10.82;;;;;;;5.84;100.00;100605.16;4963654;28;20042;-53
2021/03/15 04:54:11;;;;;;;18.48;9.98;;;;;;;5.86;100.00;100606.69;4969597;28;20126;-52
2021/03/15 04:56:39;;;;;;;20.33;10.32;;;;;;;5.65;100.00;100613.91;4966265;28;20035;-54
2021/03/15 04:59:08;;;;;;;21.88;11.15;;;;;;;5.53;100.00;100618.50;4968389;28;20070;-54
2021/03/15 05:01:39;;;;;;;22.20;11.27;;;;;;;5.56;100.00;100620.03;4962809;28;20430;-50
2021/03/15 05:04:09;;;;;;;18.00;9.90;;;;;;;5.54;100.00;100628.09;4969010;28;20047;-54
2021/03/15 05:06:38;;;;;;;22.42;11.02;;;;;;;5.41;100.00;100628.34;4966788;28;20035;-51
2021/03/15 05:09:11;;;;;;;19.27;9.50;;;;;;;5.35;100.00;100634.19;4968220;28;20122;-51
2021/03/15 05:11:39;;;;;;;24.58;10.63;;;;;;;5.35;100.00;100635.00;4965865;28;20054;-52
2021/03/15 05:14:06;;;;;;;22.30;9.43;;;;;;;5.15;100.00;100633.28;4969597;28;20058;-53
2021/03/15 05:16:35;;;;;;;24.92;10.38;;;;;;;5.24;100.00;100647.53;4970209;28;20038;-52
2021/03/15 05:19:04;;;;;;;21.80;10.77;;;;;;;5.05;100.00;100649.09;4968715;28;20165;-51
2021/03/15 05:21:33;;;;;;;18.40;9.10;;;;;;;4.98;100.00;100648.78;4960831;28;20055;-50
2021/03/15 05:24:01;;;;;;;16.73;8.50;;;;;;;4.89;100.00;100661.94;4966166;28;20050;-53
2021/03/15 05:26:28;;;;;;;18.52;8.70;;;;;;;4.90;100.00;100661.81;4962978;28;20347;-52
2021/03/15 05:28:57;;;;;;;20.85;9.85;;;;;;;4.75;100.00;100658.69;4966273;28;20042;-54
2021/03/15 05:31:24;;;;;;;19.95;8.65;;;;;;;4.65;100.00;100663.91;4965383;28;20039;-53
2021/03/15 05:33:52;;;;;;;19.58;9.77;;;;;;;4.65;100.00;100663.06;4969189;28;20046;-54
2021/03/15 05:36:20;;;;;;;19.90;9.52;;;;;;;4.54;100.00;100661.31;4970061;28;20047;-51
2021/03/15 05:38:47;;;;;;;18.67;9.25;;;;;;;4.57;100.00;100666.34;4965257;28;20055;-53
2021/03/15 05:41:15;;;;;;;19.48;9.40;;;;;;;4.40;100.00;100659.81;4964346;28;20734;-54
2021/03/15 05:43:59;;;;;;;13.80;8.27;;;;;;;4.39;100.00;100671.34;4967449;28;20042;-53
2021/03/15 05:46:44;;;;;;;17.85;8.30;;;;;;;4.34;100.00;100681.47;4967991;28;20054;-51
2021/03/15 05:49:31;;;;;;;21.55;8.63;;;;;;;4.34;100.00;100675.31;4965752;28;20057;-53
2021/03/15 05:52:09;;;;;;;15.68;8.35;;;;;;;4.24;100.00;100686.66;4964144;28;20050;-52
2021/03/15 05:55:23;;;;;;;19.10;7.90;;;;;;;3.99;100.00;100682.53;4967119;28;20061;-52
2021/03/15 05:58:21;;;;;;;18.58;7.90;;;;;;;4.03;100.00;100689.25;4966288;28;20043;-52
2021/03/15 06:01:07;;;;;;;17.35;8.07;;;;;;;4.02;100.00;100692.84;4965766;28;20038;-52
2021/03/15 06:04:01;;;;;;;18.58;8.02;;;;;;;4.12;100.00;100696.41;4966700;28;20144;-53
2021/03/15 06:06:36;;;;;;;17.30;8.93;;;;;;;4.04;100.00;100695.34;4969622;28;20121;-51
2021/03/15 06:09:05;;;;;;;14.60;6.88;;;;;;;3.96;100.00;100703.91;4963380;28;20042;-53
2021/03/15 06:11:37;;;;;;;21.13;8.32;;;;;;;3.96;100.00;100706.56;4962034;28;20341;-51
2021/03/15 06:14:07;;;;;;;21.25;8.38;;;;;;;3.89;100.00;100713.31;4963707;28;20050;-49
2021/03/15 06:16:34;;;;;;;19.85;9.48;;;;;;;3.90;100.00;100718.47;4965889;28;20485;-53
2021/03/15 06:19:02;;;;;;;19.30;9.20;;;;;;;3.95;100.00;100718.09;4965785;28;20050;-51
2021/03/15 06:21:28;;;;;;;16.50;8.02;;;;;;;3.91;100.00;100720.16;4963991;28;20049;-52
2021/03/15 06:23:59;;;;;;;20.75;9.15;;;;;;;3.86;100.00;100732.88;4967751;28;20457;-52
2021/03/15 06:26:26;;;;;;;19.55;9.48;;;;;;;3.99;100.00;100724.81;4967809;28;20050;-52
2021/03/15 06:28:55;;;;;;;23.40;9.68;;;;;;;3.82;100.00;100739.34;4963548;28;20077;-51
2021/03/15 06:31:23;;;;;;;18.33;8.52;;;;;;;4.04;100.00;100740.28;4965396;28;20054;-51
2021/03/15 06:33:50;;;;;;;21.50;10.23;;;;;;;4.19;100.00;100741.69;4964228;28;20093;-53
2021/03/15 06:36:17;;;;;;;21.20;9.38;;;;;;;4.20;100.00;100743.38;4966992;28;20336;-52
2021/03/15 06:38:46;;;;;;;22.73;9.65;;;;;;;4.31;100.00;100750.47;4966116;28;20045;-53
2021/03/15 06:41:15;;;;;;;20.48;10.10;;;;;;;4.48;100.00;100751.75;4965579;28;20576;-51
2021/03/15 06:43:43;;;;;;;20.30;9.38;;;;;;;4.52;100.00;100750.50;4962249;28;20050;-51
2021/03/15 06:46:15;;;;;;;23.10;10.75;;;;;;;4.63;100.00;100760.22;4966066;28;20280;-52
2021/03/15 06:48:44;;;;;;;25.17;10.02;;;;;;;4.71;100.00;100756.97;4964747;28;20051;-52
2021/03/15 06:51:11;;;;;;;18.05;10.25;;;;;;;4.80;100.00;100766.75;4963514;28;20043;-52
2021/03/15 06:53:39;;;;;;;21.45;9.05;;;;;;;4.93;100.00;100759.50;4966189;28;20053;-51
2021/03/15 06:56:13;;;;;;;17.08;8.27;;;;;;;4.98;100.00;100769.69;4963348;28;20054;-53
2021/03/15 06:58:50;;;;;;;17.75;8.20;;;;;;;5.01;100.00;100769.44;4965110;28;20039;-53
2021/03/15 07:01:18;;;;;;;22.25;8.02;;;;;;;5.11;100.00;100785.38;4964276;28;20147;-53
2021/03/15 07:03:48;;;;;;;17.67;7.43;;;;;;;5.15;100.00;100784.16;4966205;28;20121;-51
2021/03/15 07:06:18;;;;;;;19.58;8.35;;;;;;;5.19;100.00;100796.19;4968707;28;20158;-53
2021/03/15 07:08:46;;;;;;;17.05;7.85;;;;;;;5.16;100.00;100791.97;4965769;28;20046;-53
2021/03/15 07:11:20;;;;;;;13.68;5.90;;;;;;;5.33;100.00;100790.56;4962174;28;20066;-54
2021/03/15 07:13:47;;;;;;;15.90;7.57;;;;;;;5.25;100.00;100800.94;4963058;28;20061;-51
2021/03/15 07:16:25;;;;;;;18.83;6.72;;;;;;;5.33;100.00;100802.94;4964486;28;20057;-54
2021/03/15 07:18:53;;;;;;;14.68;6.72;;;;;;;5.23;100.00;100813.50;4964012;28;20182;-51
2021/03/15 07:21:35;;;;;;;13.52;6.60;;;;;;;5.32;100.00;100814.53;4963427;28;20355;-52
2021/03/15 07:24:03;;;;;;;21.23;7.20;;;;;;;5.22;100.00;100813.63;4965695;28;20351;-52
2021/03/15 07:26:31;;;;;;;17.20;6.72;;;;;;;5.40;100.00;100817.38;4962648;28;20334;-53
2021/03/15 07:28:59;;;;;;;11.85;6.25;;;;;;;5.42;100.00;100826.03;4965166;28;20038;-54
2021/03/15 07:31:28;;;;;;;13.73;6.65;;;;;;;5.49;100.00;100835.13;4962814;28;20594;-55
2021/03/15 07:34:12;;;;;;;16.30;6.85;;;;;;;5.54;100.00;100844.50;4963563;28;20055;-51
2021/03/15 07:36:47;;;;;;;18.58;6.50;;;;;;;5.61;100.00;100838.53;4961352;28;20042;-53
2021/03/15 07:39:14;;;;;;;15.25;6.10;;;;;;;5.66;100.00;100844.28;4963622;28;20434;-51
2021/03/15 07:41:45;;;;;;;21.92;6.95;;;;;;;5.84;100.00;100847.19;4961709;28;20043;-53
2021/03/15 07:44:18;;;;;;;13.85;5.97;;;;;;;5.76;100.00;100870.03;4967894;28;20235;-52
2021/03/15 07:46:45;;;;;;;16.23;5.57;;;;;;;5.81;100.00;100868.66;4959495;28;20038;-53
2021/03/15 07:49:26;;;;;;;14.40;5.97;;;;;;;5.97;100.00;100872.66;4964603;28;20046;-51
2021/03/15 07:51:54;;;;;;;18.60;6.72;;;;;;;5.81;100.00;100875.75;4960828;28;20065;-52
2021/03/15 07:54:28;;;;;;;10.98;5.50;;;;;;;5.64;100.00;100882.47;4960150;28;20066;-52
2021/03/15 07:57:18;;;;;;;12.63;6.30;;;;;;;5.89;100.00;100881.25;4966536;28;20046;-54
2021/03/15 07:59:47;;;;;;;12.30;5.82;;;;;;;5.88;100.00;100884.84;4965009;28;20577;-54
2021/03/15 08:02:16;;;;;;;10.10;5.13;;;;;;;5.60;100.00;100892.50;4963771;28;20035;-54
2021/03/15 08:04:45;;;;;;;13.35;6.70;;;;;;;5.69;100.00;100890.91;4965074;28;20404;-53
2021/03/15 08:07:13;;;;;;;23.65;5.95;;;;;;;5.95;100.00;100893.13;4966726;28;20043;-54
2021/03/15 08:09:42;;;;;;;12.15;5.63;;;;;;;5.97;100.00;100899.16;4963500;28;20350;-53
2021/03/15 08:12:11;;;;;;;10.23;4.68;;;;;;;6.19;100.00;100908.78;4961212;28;20061;-53
2021/03/15 08:14:39;;;;;;;12.45;4.82;;;;;;;6.17;100.00;100922.16;4964390;28;20051;-52
2021/03/15 08:17:09;;;;;;;14.20;5.50;;;;;;;6.19;100.00;100919.38;4964972;28;20050;-53
2021/03/15 08:19:37;;;;;;;12.23;5.55;;;;;;;6.36;100.00;100921.44;4969140;28;20043;-52
2021/03/15 08:22:07;;;;;;;9.50;4.72;;;;;;;6.31;100.00;100933.41;4967510;28;20085;-53
2021/03/15 08:24:37;;;;;;;11.70;5.47;;;;;;;6.15;100.00;100942.69;4967952;28;20432;-54
2021/03/15 08:27:05;;;;;;;7.85;5.20;;;;;;;6.21;100.00;100941.31;4965734;28;20063;-52
2021/03/15 08:29:36;;;;;;;15.77;5.50;;;;;;;6.08;100.00;100949.50;4967265;28;20046;-54
2021/03/15 08:32:04;;;;;;;11.52;4.50;;;;;;;6.09;100.00;100951.16;4965727;28;20134;-51
2021/03/15 08:34:33;;;;;;;13.82;4.95;;;;;;;6.13;100.00;100957.88;4971284;28;20042;-52
2021/03/15 08:37:00;;;;;;;11.95;5.13;;;;;;;6.08;100.00;100952.16;4963622;28;20371;-55
2021/03/15 08:39:40;;;;;;;7.18;3.92;;;;;;;6.20;100.00;100947.59;4972123;28;20161;-53
2021/03/15 08:42:25;;;;;;;13.65;5.10;;;;;;;6.24;100.00;100958.75;4966084;28;20122;-52
2021/03/15 08:45:28;;;;;;;8.75;5.15;;;;;;;7.02;100.00;100959.09;4965164;28;20051;-52
2021/03/15 08:48:00;;;;;;;12.02;4.68;;;;;;;7.47;100.00;100957.72;4967788;28;20055;-52
2021/03/15 08:50:49;;;;;;;9.68;4.15;;;;;;;7.13;100.00;100960.75;4964969;28;20039;-54
2021/03/15 08:53:48;;;;;;;9.35;4.57;;;;;;;6.60;100.00;100964.53;4956528;28;20043;-53
2021/03/15 08:56:38;;;;;;;10.68;4.43;;;;;;;6.92;100.00;100964.38;4959115;28;20058;-52
2021/03/15 08:59:06;;;;;;;6.70;3.53;;;;;;;7.22;100.00;100968.75;4969509;28;20414;-55
2021/03/15 09:01:50;;;;;;;7.50;3.13;;;;;;;7.52;100.00;100966.13;4968282;28;20817;-54
2021/03/15 09:04:33;;;;;;;8.13;3.60;;;;;;;8.03;100.00;100974.78;4962282;28;20067;-54
2021/03/15 09:07:04;;;;;;;10.02;4.38;;;;;;;7.38;100.00;100962.06;4964520;28;20133;-55
2021/03/15 09:09:33;;;;;;;12.35;4.75;;;;;;;7.24;100.00;100964.16;4965106;28;20039;-53
2021/03/15 09:12:02;;;;;;;12.38;5.10;;;;;;;6.93;100.00;100983.78;4962833;28;20154;-54
2021/03/15 09:14:34;;;;;;;6.53;3.88;;;;;;;7.24;100.00;100989.88;4962560;28;20039;-54
2021/03/15 09:17:32;;;;;;;9.82;4.07;;;;;;;7.31;100.00;100982.19;4969143;28;20074;-55
2021/03/15 09:20:19;;;;;;;9.35;4.25;;;;;;;7.43;100.00;100993.53;4964394;28;20206;-52
2021/03/15 09:22:46;;;;;;;8.98;4.10;;;;;;;6.73;100.00;100996.97;4967470;28;20069;-52
2021/03/15 09:25:21;;;;;;;8.95;3.45;;;;;;;6.67;100.00;100987.75;4967170;28;20510;-54
2021/03/15 09:27:54;;;;;;;7.72;3.88;;;;;;;7.49;100.00;100998.31;4964134;28;20047;-53
2021/03/15 09:30:24;;;;;;;10.05;3.13;;;;;;;7.45;100.00;100997.72;4965733;28;20039;-54
2021/03/15 09:32:52;;;;;;;3.75;2.70;;;;;;;7.68;100.00;101002.78;4959599;28;20045;-55
2021/03/15 09:35:28;;;;;;;6.80;2.90;;;;;;;7.90;100.00;101006.97;4964032;28;20043;-56
2021/03/15 09:37:58;;;;;;;8.95;3.00;;;;;;;8.10;100.00;101008.63;4962713;28;20045;-54
2021/03/15 09:40:28;;;;;;;6.30;2.60;;;;;;;8.48;100.00;101003.41;4962518;28;20350;-55
2021/03/15 09:42:57;;;;;;;11.23;3.22;;;;;;;8.35;100.00;101011.69;4962440;28;20046;-55
2021/03/15 09:45:35;;;;;;;9.68;2.72;;;;;;;8.30;100.00;101013.09;4963731;28;20035;-55
2021/03/15 09:48:05;;;;;;;9.02;3.55;;;;;;;8.39;100.00;101007.75;4960705;28;20180;-55
2021/03/15 09:50:33;;;;;;;6.43;3.35;;;;;;;7.46;100.00;101010.03;4959227;28;20050;-55
2021/03/15 09:53:11;;;;;;;5.45;2.17;;;;;;;7.27;100.00;101021.47;4960487;28;20145;-55
2021/03/15 09:55:38;;;;;;;7.47;2.85;;;;;;;7.34;100.00;101019.09;4964458;28;20270;-53
2021/03/15 09:58:08;;;;;;;7.40;2.25;;;;;;;7.92;100.00;101024.47;4964177;28;20042;-53
2021/03/15 10:00:36;;;;;;;5.15;3.45;;;;;;;8.49;100.00;101031.72;4965012;28;20047;-54
2021/03/15 10:03:04;;;;;;;5.78;2.33;;;;;;;8.16;100.00;101031.16;4962078;28;20137;-54
2021/03/15 10:05:31;;;;;;;2.05;1.50;;;;;;;8.51;100.00;101029.72;4964833;28;20058;-54
2021/03/15 10:07:59;;;;;;;4.47;2.00;;;;;;;9.25;100.00;101024.50;4964081;28;20070;-56
2021/03/15 10:10:26;;;;;;;5.32;1.40;;;;;;;9.73;100.00;101033.16;4966651;28;20320;-55
2021/03/15 10:13:01;;;;;;;4.28;1.20;;;;;;;9.15;100.00;101024.56;4961219;28;20544;-54
2021/03/15 10:15:29;;;;;;;3.90;1.42;;;;;;;9.36;100.00;101015.47;4969659;28;20327;-54
2021/03/15 10:17:56;;;;;;;6.72;2.03;;;;;;;8.33;100.00;101040.25;4967233;28;20440;-54
2021/03/15 10:20:34;;;;;;;4.97;1.90;;;;;;;8.33;100.00;101040.25;4964356;28;20039;-53
2021/03/15 10:23:10;;;;;;;6.00;2.40;;;;;;;8.01;100.00;101040.56;4965805;28;22002;-55
2021/03/15 10:25:37;;;;;;;6.00;1.85;;;;;;;7.83;100.00;101046.59;4966858;28;20034;-53
2021/03/15 10:28:04;;;;;;;4.88;2.17;;;;;;;8.60;100.00;101047.50;4964739;28;20054;-53
2021/03/15 10:30:35;;;;;;;6.90;1.90;;;;;;;8.62;100.00;101055.34;4965321;28;20042;-53
2021/03/15 10:33:03;;;;;;;6.82;2.20;;;;;;;9.01;100.00;101049.03;4959863;28;20542;-55
2021/03/15 10:35:31;;;;;;;5.68;1.50;;;;;;;8.71;100.00;101042.97;4960943;28;20046;-53
2021/03/15 10:38:01;;;;;;;6.68;2.25;;;;;;;8.63;100.00;101048.19;4965811;28;20259;-54
2021/03/15 10:40:29;;;;;;;9.18;2.17;;;;;;;8.81;100.00;101049.09;4963593;28;20130;-54
2021/03/15 10:43:01;;;;;;;3.53;1.52;;;;;;;8.98;100.00;101046.66;4959814;28;20125;-54
2021/03/15 10:45:28;;;;;;;5.43;1.27;;;;;;;9.44;100.00;101048.38;4966520;28;20053;-54
2021/03/15 10:48:01;;;;;;;2.63;1.90;;;;;;;8.96;100.00;101058.31;4964731;28;20050;-53
2021/03/15 10:50:30;;;;;;;2.88;1.27;;;;;;;9.46;100.00;101053.56;4967051;28;20324;-54
2021/03/15 10:53:09;;;;;;;4.22;1.83;;;;;;;10.02;100.00;101058.75;4961468;28;20133;-54
2021/03/15 10:55:36;;;;;;;4.63;1.25;;;;;;;9.46;100.00;101053.56;4967430;28;20039;-53
2021/03/15 10:58:06;;;;;;;6.18;1.75;;;;;;;8.48;100.00;101061.97;4965691;28;20441;-54
2021/03/15 11:00:35;;;;;;;3.90;1.33;;;;;;;8.83;100.00;101063.13;4965497;28;20043;-57
2021/03/15 11:03:03;;;;;;;6.63;2.35;;;;;;;9.17;100.00;101043.91;4964920;28;20508;-56
2021/03/15 11:05:30;;;;;;;7.60;1.80;;;;;;;9.78;100.00;101070.88;4967607;28;20047;-52
2021/03/15 11:07:58;;;;;;;5.93;1.83;;;;;;;9.73;100.00;101081.19;4966064;28;20336;-51
2021/03/15 11:10:29;;;;;;;4.20;1.42;;;;;;;9.45;100.00;101081.19;4969404;28;20046;-54
2021/03/15 11:12:57;;;;;;;6.32;2.67;;;;;;;8.93;100.00;101089.72;4961561;28;20121;-57
2021/03/15 11:15:32;;;;;;;4.03;1.50;;;;;;;9.83;100.00;101087.28;4963385;28;20284;-53
2021/03/15 11:18:07;;;;;;;4.35;1.63;;;;;;;9.00;100.00;101089.97;4963384;28;20109;-55
2021/03/15 11:20:59;;;;;;;6.80;1.60;;;;;;;9.47;100.00;101098.72;4968062;28;20046;-53
2021/03/15 11:23:32;;;;;;;4.22;1.30;;;;;;;9.27;100.00;101091.81;4952436;28;20321;-51
2021/03/15 11:26:05;;;;;;;5.78;1.30;;;;;;;9.82;100.00;101090.91;4962688;28;20050;-54
2021/03/15 11:28:34;;;;;;;4.30;1.80;;;;;;;9.79;100.00;101085.91;4964028;28;20338;-56
2021/03/15 11:31:01;;;;;;;4.47;1.63;;;;;;;10.19;100.00;101097.94;4963710;28;20053;-54
2021/03/15 11:33:29;;;;;;;2.28;1.52;;;;;;;9.64;100.00;101089.09;4963851;28;20038;-54
2021/03/15 11:35:59;;;;;;;5.55;1.55;;;;;;;9.16;100.00;101100.84;4966793;28;20442;-54